Terminal Aerodrome Forecast
Issued by NWS

Home | Current Version | Previous Version | Text Only | Print | Product List | Glossary On
Versions: 1 2 3 4 5 6 7 8 9 10 11 12 13 14 15 16
000
FTUS43 KDTX 050539
TAFPTK
TAF
KPTK 050539Z 0506/0606 24005KT 3SM BR OVC003
     FM050800 26009KT P6SM BKN005 OVC010
     FM051400 25010KT P6SM OVC012
     FM060000 18005KT P6SM SCT016=

USA.gov is the U.S. government's official web portal to all federal, state and local government web resources and services.